sensor_id;sensor_type;location;lat;lon;timestamp;P1;durP1;ratioP1;P2;durP2;ratioP2
82242;SDS011;71844;51.528;4.442;2024-03-08T00:02:17;26.30;;;10.50;;
82242;SDS011;71844;51.528;4.442;2024-03-08T00:04:46;20.70;;;9.43;;
82242;SDS011;71844;51.528;4.442;2024-03-08T00:07:13;22.50;;;9.05;;
82242;SDS011;71844;51.528;4.442;2024-03-08T00:09:39;21.38;;;9.02;;
82242;SDS011;71844;51.528;4.442;2024-03-08T00:12:07;22.20;;;8.98;;
82242;SDS011;71844;51.528;4.442;2024-03-08T00:14:34;21.60;;;9.32;;
82242;SDS011;71844;51.528;4.442;2024-03-08T00:17:01;25.17;;;9.48;;
82242;SDS011;71844;51.528;4.442;2024-03-08T00:19:29;23.98;;;9.13;;
82242;SDS011;71844;51.528;4.442;2024-03-08T00:21:56;23.42;;;9.05;;
82242;SDS011;71844;51.528;4.442;2024-03-08T00:24:23;23.50;;;9.57;;
82242;SDS011;71844;51.528;4.442;2024-03-08T00:26:51;23.52;;;11.07;;
82242;SDS011;71844;51.528;4.442;2024-03-08T00:29:20;23.45;;;9.85;;
82242;SDS011;71844;51.528;4.442;2024-03-08T00:31:48;22.80;;;10.05;;
82242;SDS011;71844;51.528;4.442;2024-03-08T00:34:15;21.92;;;9.05;;
82242;SDS011;71844;51.528;4.442;2024-03-08T00:36:42;32.30;;;11.07;;
82242;SDS011;71844;51.528;4.442;2024-03-08T00:39:10;19.42;;;8.45;;
82242;SDS011;71844;51.528;4.442;2024-03-08T00:41:38;23.33;;;10.00;;
82242;SDS011;71844;51.528;4.442;2024-03-08T00:44:05;22.52;;;9.80;;
82242;SDS011;71844;51.528;4.442;2024-03-08T00:46:32;23.95;;;9.48;;
82242;SDS011;71844;51.528;4.442;2024-03-08T00:49:00;19.42;;;8.10;;
82242;SDS011;71844;51.528;4.442;2024-03-08T00:51:27;20.08;;;8.25;;
82242;SDS011;71844;51.528;4.442;2024-03-08T00:53:54;23.13;;;9.60;;
82242;SDS011;71844;51.528;4.442;2024-03-08T00:56:21;18.67;;;8.57;;
82242;SDS011;71844;51.528;4.442;2024-03-08T00:58:48;20.55;;;8.73;;
82242;SDS011;71844;51.528;4.442;2024-03-08T01:01:15;15.60;;;7.75;;
82242;SDS011;71844;51.528;4.442;2024-03-08T01:03:42;21.23;;;8.75;;
82242;SDS011;71844;51.528;4.442;2024-03-08T01:06:10;18.20;;;8.13;;
82242;SDS011;71844;51.528;4.442;2024-03-08T01:08:38;18.85;;;8.00;;
82242;SDS011;71844;51.528;4.442;2024-03-08T01:11:07;21.38;;;8.35;;
82242;SDS011;71844;51.528;4.442;2024-03-08T01:13:35;18.80;;;8.68;;
82242;SDS011;71844;51.528;4.442;2024-03-08T01:16:02;21.13;;;8.82;;
82242;SDS011;71844;51.528;4.442;2024-03-08T01:18:29;20.15;;;8.48;;
82242;SDS011;71844;51.528;4.442;2024-03-08T01:20:56;19.00;;;8.02;;
82242;SDS011;71844;51.528;4.442;2024-03-08T01:23:23;16.85;;;8.02;;
82242;SDS011;71844;51.528;4.442;2024-03-08T01:25:50;25.98;;;9.63;;
82242;SDS011;71844;51.528;4.442;2024-03-08T01:28:23;24.63;;;10.10;;
82242;SDS011;71844;51.528;4.442;2024-03-08T01:30:51;22.17;;;9.30;;
82242;SDS011;71844;51.528;4.442;2024-03-08T01:33:25;24.73;;;10.15;;
82242;SDS011;71844;51.528;4.442;2024-03-08T01:35:53;20.90;;;10.35;;
82242;SDS011;71844;51.528;4.442;2024-03-08T01:38:20;19.95;;;8.70;;
82242;SDS011;71844;51.528;4.442;2024-03-08T01:40:50;19.77;;;8.20;;
82242;SDS011;71844;51.528;4.442;2024-03-08T01:43:21;17.88;;;9.00;;
82242;SDS011;71844;51.528;4.442;2024-03-08T01:45:51;18.63;;;7.68;;
82242;SDS011;71844;51.528;4.442;2024-03-08T01:48:19;20.15;;;9.43;;
82242;SDS011;71844;51.528;4.442;2024-03-08T01:50:50;19.05;;;8.57;;
82242;SDS011;71844;51.528;4.442;2024-03-08T01:53:19;16.92;;;8.60;;
82242;SDS011;71844;51.528;4.442;2024-03-08T01:55:46;20.33;;;9.25;;
82242;SDS011;71844;51.528;4.442;2024-03-08T01:58:14;17.83;;;7.72;;
82242;SDS011;71844;51.528;4.442;2024-03-08T02:03:39;21.00;;;8.75;;
82242;SDS011;71844;51.528;4.442;2024-03-08T02:06:06;18.23;;;8.18;;
82242;SDS011;71844;51.528;4.442;2024-03-08T02:08:36;16.52;;;8.20;;
82242;SDS011;71844;51.528;4.442;2024-03-08T02:11:04;19.98;;;8.88;;
82242;SDS011;71844;51.528;4.442;2024-03-08T02:13:31;17.92;;;7.93;;
82242;SDS011;71844;51.528;4.442;2024-03-08T02:15:59;16.73;;;7.38;;
82242;SDS011;71844;51.528;4.442;2024-03-08T02:18:27;19.98;;;7.63;;
82242;SDS011;71844;51.528;4.442;2024-03-08T02:20:56;22.65;;;8.95;;
82242;SDS011;71844;51.528;4.442;2024-03-08T02:23:24;18.98;;;8.13;;
82242;SDS011;71844;51.528;4.442;2024-03-08T02:25:52;20.45;;;8.27;;
82242;SDS011;71844;51.528;4.442;2024-03-08T02:28:20;23.58;;;8.90;;
82242;SDS011;71844;51.528;4.442;2024-03-08T02:30:47;18.02;;;8.15;;
82242;SDS011;71844;51.528;4.442;2024-03-08T02:33:15;15.70;;;7.03;;
82242;SDS011;71844;51.528;4.442;2024-03-08T02:35:44;24.67;;;10.80;;
82242;SDS011;71844;51.528;4.442;2024-03-08T02:38:14;16.75;;;7.25;;
82242;SDS011;71844;51.528;4.442;2024-03-08T02:40:43;21.10;;;10.07;;
82242;SDS011;71844;51.528;4.442;2024-03-08T02:43:10;15.93;;;7.35;;
82242;SDS011;71844;51.528;4.442;2024-03-08T02:45:38;18.70;;;8.88;;
82242;SDS011;71844;51.528;4.442;2024-03-08T02:48:05;19.23;;;9.15;;
82242;SDS011;71844;51.528;4.442;2024-03-08T02:50:35;16.65;;;7.10;;
82242;SDS011;71844;51.528;4.442;2024-03-08T02:53:06;23.58;;;9.98;;
82242;SDS011;71844;51.528;4.442;2024-03-08T02:55:34;21.30;;;7.60;;
82242;SDS011;71844;51.528;4.442;2024-03-08T02:58:03;19.88;;;8.43;;
82242;SDS011;71844;51.528;4.442;2024-03-08T03:00:31;18.05;;;8.05;;
82242;SDS011;71844;51.528;4.442;2024-03-08T03:02:59;19.58;;;8.95;;
82242;SDS011;71844;51.528;4.442;2024-03-08T03:05:29;16.83;;;8.25;;
82242;SDS011;71844;51.528;4.442;2024-03-08T03:07:56;17.02;;;7.60;;
82242;SDS011;71844;51.528;4.442;2024-03-08T03:10:24;17.58;;;7.93;;
82242;SDS011;71844;51.528;4.442;2024-03-08T03:12:52;18.75;;;9.07;;
82242;SDS011;71844;51.528;4.442;2024-03-08T03:15:19;18.48;;;7.53;;
82242;SDS011;71844;51.528;4.442;2024-03-08T03:17:46;15.77;;;7.60;;
82242;SDS011;71844;51.528;4.442;2024-03-08T03:20:14;18.70;;;8.68;;
82242;SDS011;71844;51.528;4.442;2024-03-08T03:22:49;20.00;;;10.20;;
82242;SDS011;71844;51.528;4.442;2024-03-08T03:25:19;17.45;;;7.45;;
82242;SDS011;71844;51.528;4.442;2024-03-08T03:27:52;15.35;;;7.53;;
82242;SDS011;71844;51.528;4.442;2024-03-08T03:30:23;16.20;;;7.70;;
82242;SDS011;71844;51.528;4.442;2024-03-08T03:32:53;14.70;;;6.22;;
82242;SDS011;71844;51.528;4.442;2024-03-08T03:35:21;18.98;;;8.23;;
82242;SDS011;71844;51.528;4.442;2024-03-08T03:37:49;15.75;;;6.55;;
82242;SDS011;71844;51.528;4.442;2024-03-08T03:40:32;17.65;;;8.35;;
82242;SDS011;71844;51.528;4.442;2024-03-08T03:43:00;15.35;;;7.25;;
82242;SDS011;71844;51.528;4.442;2024-03-08T03:45:29;20.88;;;9.30;;
82242;SDS011;71844;51.528;4.442;2024-03-08T03:48:01;15.15;;;7.50;;
82242;SDS011;71844;51.528;4.442;2024-03-08T03:50:29;15.68;;;7.07;;
82242;SDS011;71844;51.528;4.442;2024-03-08T03:52:56;17.73;;;8.60;;
82242;SDS011;71844;51.528;4.442;2024-03-08T03:55:24;16.30;;;7.95;;
82242;SDS011;71844;51.528;4.442;2024-03-08T03:57:51;17.52;;;7.80;;
82242;SDS011;71844;51.528;4.442;2024-03-08T04:00:18;13.88;;;6.38;;
82242;SDS011;71844;51.528;4.442;2024-03-08T04:02:45;14.88;;;7.88;;
82242;SDS011;71844;51.528;4.442;2024-03-08T04:05:15;15.48;;;7.78;;
82242;SDS011;71844;51.528;4.442;2024-03-08T04:07:43;14.35;;;7.10;;
82242;SDS011;71844;51.528;4.442;2024-03-08T04:10:11;16.17;;;7.90;;
82242;SDS011;71844;51.528;4.442;2024-03-08T04:12:38;17.75;;;7.95;;
82242;SDS011;71844;51.528;4.442;2024-03-08T04:15:05;18.50;;;8.80;;
82242;SDS011;71844;51.528;4.442;2024-03-08T04:17:37;18.10;;;7.63;;
82242;SDS011;71844;51.528;4.442;2024-03-08T04:20:05;14.73;;;7.00;;
82242;SDS011;71844;51.528;4.442;2024-03-08T04:22:41;17.20;;;8.07;;
82242;SDS011;71844;51.528;4.442;2024-03-08T04:25:10;13.23;;;6.65;;
82242;SDS011;71844;51.528;4.442;2024-03-08T04:27:37;15.40;;;7.43;;
82242;SDS011;71844;51.528;4.442;2024-03-08T04:30:04;15.57;;;7.32;;
82242;SDS011;71844;51.528;4.442;2024-03-08T04:32:34;13.68;;;6.35;;
82242;SDS011;71844;51.528;4.442;2024-03-08T04:35:02;17.20;;;7.25;;
82242;SDS011;71844;51.528;4.442;2024-03-08T04:37:30;14.30;;;7.60;;
82242;SDS011;71844;51.528;4.442;2024-03-08T04:39:57;15.73;;;7.63;;
82242;SDS011;71844;51.528;4.442;2024-03-08T04:42:24;20.75;;;9.68;;
82242;SDS011;71844;51.528;4.442;2024-03-08T04:44:53;16.25;;;7.00;;
82242;SDS011;71844;51.528;4.442;2024-03-08T04:47:20;19.83;;;8.27;;
82242;SDS011;71844;51.528;4.442;2024-03-08T04:49:47;15.25;;;7.45;;
82242;SDS011;71844;51.528;4.442;2024-03-08T04:52:14;14.48;;;7.32;;
82242;SDS011;71844;51.528;4.442;2024-03-08T04:54:41;16.48;;;8.15;;
82242;SDS011;71844;51.528;4.442;2024-03-08T04:57:09;17.38;;;8.23;;
82242;SDS011;71844;51.528;4.442;2024-03-08T04:59:37;17.50;;;7.75;;
82242;SDS011;71844;51.528;4.442;2024-03-08T05:02:04;15.10;;;7.75;;
82242;SDS011;71844;51.528;4.442;2024-03-08T05:04:31;13.80;;;7.13;;
82242;SDS011;71844;51.528;4.442;2024-03-08T05:06:57;15.35;;;7.45;;
82242;SDS011;71844;51.528;4.442;2024-03-08T05:09:27;15.82;;;7.25;;
82242;SDS011;71844;51.528;4.442;2024-03-08T05:11:55;16.27;;;7.85;;
82242;SDS011;71844;51.528;4.442;2024-03-08T05:14:23;16.42;;;8.10;;
82242;SDS011;71844;51.528;4.442;2024-03-08T05:16:51;15.73;;;7.45;;
82242;SDS011;71844;51.528;4.442;2024-03-08T05:19:18;21.83;;;9.68;;
82242;SDS011;71844;51.528;4.442;2024-03-08T05:21:46;17.90;;;8.52;;
82242;SDS011;71844;51.528;4.442;2024-03-08T05:24:14;19.02;;;9.20;;
82242;SDS011;71844;51.528;4.442;2024-03-08T05:26:44;23.23;;;9.30;;
82242;SDS011;71844;51.528;4.442;2024-03-08T05:29:12;19.02;;;7.90;;
82242;SDS011;71844;51.528;4.442;2024-03-08T05:31:47;15.18;;;7.47;;
82242;SDS011;71844;51.528;4.442;2024-03-08T05:34:15;20.30;;;9.10;;
82242;SDS011;71844;51.528;4.442;2024-03-08T05:36:42;25.67;;;10.43;;
82242;SDS011;71844;51.528;4.442;2024-03-08T05:39:13;18.90;;;9.25;;
82242;SDS011;71844;51.528;4.442;2024-03-08T05:41:41;19.65;;;9.20;;
82242;SDS011;71844;51.528;4.442;2024-03-08T05:44:08;17.00;;;7.88;;
82242;SDS011;71844;51.528;4.442;2024-03-08T05:46:36;13.32;;;7.03;;
82242;SDS011;71844;51.528;4.442;2024-03-08T05:49:04;21.77;;;9.55;;
82242;SDS011;71844;51.528;4.442;2024-03-08T05:51:32;17.23;;;8.15;;
82242;SDS011;71844;51.528;4.442;2024-03-08T05:54:03;16.05;;;8.23;;
82242;SDS011;71844;51.528;4.442;2024-03-08T05:56:44;18.70;;;8.05;;
82242;SDS011;71844;51.528;4.442;2024-03-08T05:59:11;20.20;;;8.23;;
82242;SDS011;71844;51.528;4.442;2024-03-08T06:01:39;18.42;;;7.85;;
82242;SDS011;71844;51.528;4.442;2024-03-08T06:04:08;14.27;;;6.93;;
82242;SDS011;71844;51.528;4.442;2024-03-08T06:06:38;15.93;;;8.32;;
82242;SDS011;71844;51.528;4.442;2024-03-08T06:09:06;17.02;;;8.45;;
82242;SDS011;71844;51.528;4.442;2024-03-08T06:11:35;17.67;;;8.80;;
82242;SDS011;71844;51.528;4.442;2024-03-08T06:14:04;16.90;;;8.30;;
82242;SDS011;71844;51.528;4.442;2024-03-08T06:16:32;20.38;;;9.38;;
82242;SDS011;71844;51.528;4.442;2024-03-08T06:19:00;19.05;;;9.52;;
82242;SDS011;71844;51.528;4.442;2024-03-08T06:21:29;21.80;;;9.60;;
82242;SDS011;71844;51.528;4.442;2024-03-08T06:23:56;22.55;;;11.18;;
82242;SDS011;71844;51.528;4.442;2024-03-08T06:26:26;17.58;;;8.52;;
82242;SDS011;71844;51.528;4.442;2024-03-08T06:28:57;15.63;;;7.60;;
82242;SDS011;71844;51.528;4.442;2024-03-08T06:31:25;19.27;;;8.63;;
82242;SDS011;71844;51.528;4.442;2024-03-08T06:33:51;19.77;;;9.35;;
82242;SDS011;71844;51.528;4.442;2024-03-08T06:36:22;18.75;;;8.23;;
82242;SDS011;71844;51.528;4.442;2024-03-08T06:38:49;19.52;;;8.15;;
82242;SDS011;71844;51.528;4.442;2024-03-08T06:41:16;15.90;;;8.68;;
82242;SDS011;71844;51.528;4.442;2024-03-08T06:43:44;17.70;;;8.70;;
82242;SDS011;71844;51.528;4.442;2024-03-08T06:46:14;16.17;;;7.63;;
82242;SDS011;71844;51.528;4.442;2024-03-08T06:48:41;21.77;;;9.20;;
82242;SDS011;71844;51.528;4.442;2024-03-08T06:51:09;18.45;;;8.25;;
82242;SDS011;71844;51.528;4.442;2024-03-08T06:53:37;19.27;;;9.73;;
82242;SDS011;71844;51.528;4.442;2024-03-08T06:56:05;14.95;;;7.30;;
82242;SDS011;71844;51.528;4.442;2024-03-08T06:58:34;16.15;;;7.30;;
82242;SDS011;71844;51.528;4.442;2024-03-08T07:01:01;16.13;;;7.82;;
82242;SDS011;71844;51.528;4.442;2024-03-08T07:03:31;20.80;;;9.60;;
82242;SDS011;71844;51.528;4.442;2024-03-08T07:05:59;18.42;;;8.52;;
82242;SDS011;71844;51.528;4.442;2024-03-08T07:08:29;23.52;;;10.45;;
82242;SDS011;71844;51.528;4.442;2024-03-08T07:10:56;21.75;;;9.50;;
82242;SDS011;71844;51.528;4.442;2024-03-08T07:13:25;20.90;;;9.05;;
82242;SDS011;71844;51.528;4.442;2024-03-08T07:15:54;16.30;;;8.25;;
82242;SDS011;71844;51.528;4.442;2024-03-08T07:18:21;16.98;;;8.88;;
82242;SDS011;71844;51.528;4.442;2024-03-08T07:20:48;19.52;;;8.70;;
82242;SDS011;71844;51.528;4.442;2024-03-08T07:23:15;22.35;;;9.88;;
82242;SDS011;71844;51.528;4.442;2024-03-08T07:26:01;18.38;;;9.20;;
82242;SDS011;71844;51.528;4.442;2024-03-08T07:28:28;18.85;;;8.38;;
82242;SDS011;71844;51.528;4.442;2024-03-08T07:31:00;19.17;;;9.63;;
82242;SDS011;71844;51.528;4.442;2024-03-08T07:33:47;22.30;;;10.10;;
82242;SDS011;71844;51.528;4.442;2024-03-08T07:36:16;18.45;;;8.88;;
82242;SDS011;71844;51.528;4.442;2024-03-08T07:38:44;17.00;;;8.95;;
82242;SDS011;71844;51.528;4.442;2024-03-08T07:41:14;19.40;;;10.00;;
82242;SDS011;71844;51.528;4.442;2024-03-08T07:43:41;20.63;;;10.10;;
82242;SDS011;71844;51.528;4.442;2024-03-08T07:46:11;22.55;;;11.70;;
82242;SDS011;71844;51.528;4.442;2024-03-08T07:48:39;25.83;;;12.50;;
82242;SDS011;71844;51.528;4.442;2024-03-08T07:51:07;21.77;;;10.80;;
82242;SDS011;71844;51.528;4.442;2024-03-08T07:53:36;18.30;;;9.52;;
82242;SDS011;71844;51.528;4.442;2024-03-08T07:56:04;22.40;;;10.38;;
82242;SDS011;71844;51.528;4.442;2024-03-08T07:58:31;21.98;;;10.48;;
82242;SDS011;71844;51.528;4.442;2024-03-08T08:01:00;17.10;;;8.60;;
82242;SDS011;71844;51.528;4.442;2024-03-08T08:03:28;23.60;;;9.57;;
82242;SDS011;71844;51.528;4.442;2024-03-08T08:05:55;23.27;;;10.73;;
82242;SDS011;71844;51.528;4.442;2024-03-08T08:08:22;20.33;;;9.80;;
82242;SDS011;71844;51.528;4.442;2024-03-08T08:10:49;19.95;;;9.68;;
82242;SDS011;71844;51.528;4.442;2024-03-08T08:13:16;18.75;;;9.43;;
82242;SDS011;71844;51.528;4.442;2024-03-08T08:15:44;17.90;;;9.10;;
82242;SDS011;71844;51.528;4.442;2024-03-08T08:18:12;19.10;;;8.73;;
82242;SDS011;71844;51.528;4.442;2024-03-08T08:20:40;22.00;;;10.57;;
82242;SDS011;71844;51.528;4.442;2024-03-08T08:23:07;18.58;;;9.85;;
82242;SDS011;71844;51.528;4.442;2024-03-08T08:25:35;20.05;;;9.50;;
82242;SDS011;71844;51.528;4.442;2024-03-08T08:28:02;18.63;;;9.40;;
82242;SDS011;71844;51.528;4.442;2024-03-08T08:30:31;21.30;;;10.10;;
82242;SDS011;71844;51.528;4.442;2024-03-08T08:32:59;18.02;;;9.05;;
82242;SDS011;71844;51.528;4.442;2024-03-08T08:35:27;20.20;;;9.27;;
82242;SDS011;71844;51.528;4.442;2024-03-08T08:37:55;19.25;;;9.75;;
82242;SDS011;71844;51.528;4.442;2024-03-08T08:40:22;18.77;;;10.07;;
82242;SDS011;71844;51.528;4.442;2024-03-08T08:42:51;19.35;;;9.75;;
82242;SDS011;71844;51.528;4.442;2024-03-08T08:45:23;19.65;;;10.15;;
82242;SDS011;71844;51.528;4.442;2024-03-08T08:47:52;19.05;;;10.60;;
82242;SDS011;71844;51.528;4.442;2024-03-08T08:50:21;19.83;;;9.77;;
82242;SDS011;71844;51.528;4.442;2024-03-08T08:52:52;17.23;;;9.80;;
82242;SDS011;71844;51.528;4.442;2024-03-08T08:55:20;20.83;;;10.40;;
82242;SDS011;71844;51.528;4.442;2024-03-08T08:57:48;19.95;;;11.50;;
82242;SDS011;71844;51.528;4.442;2024-03-08T09:00:15;18.98;;;10.45;;
82242;SDS011;71844;51.528;4.442;2024-03-08T09:02:43;24.48;;;12.82;;
82242;SDS011;71844;51.528;4.442;2024-03-08T09:05:10;17.63;;;10.75;;
82242;SDS011;71844;51.528;4.442;2024-03-08T09:07:43;19.50;;;10.70;;
82242;SDS011;71844;51.528;4.442;2024-03-08T09:10:13;18.02;;;9.32;;
82242;SDS011;71844;51.528;4.442;2024-03-08T09:12:43;24.02;;;11.15;;
82242;SDS011;71844;51.528;4.442;2024-03-08T09:15:10;17.75;;;9.38;;
82242;SDS011;71844;51.528;4.442;2024-03-08T09:17:38;16.17;;;8.88;;
82242;SDS011;71844;51.528;4.442;2024-03-08T09:20:09;17.63;;;9.75;;
82242;SDS011;71844;51.528;4.442;2024-03-08T09:22:37;19.98;;;10.55;;
82242;SDS011;71844;51.528;4.442;2024-03-08T09:25:04;16.48;;;9.23;;
82242;SDS011;71844;51.528;4.442;2024-03-08T09:27:32;14.82;;;8.68;;
82242;SDS011;71844;51.528;4.442;2024-03-08T09:30:04;17.65;;;9.20;;
82242;SDS011;71844;51.528;4.442;2024-03-08T09:32:33;17.20;;;9.38;;
82242;SDS011;71844;51.528;4.442;2024-03-08T09:35:01;15.50;;;9.40;;
82242;SDS011;71844;51.528;4.442;2024-03-08T09:37:28;18.15;;;9.50;;
82242;SDS011;71844;51.528;4.442;2024-03-08T09:39:55;16.60;;;10.25;;
82242;SDS011;71844;51.528;4.442;2024-03-08T09:42:22;17.88;;;10.23;;
82242;SDS011;71844;51.528;4.442;2024-03-08T09:44:49;20.52;;;10.25;;
82242;SDS011;71844;51.528;4.442;2024-03-08T09:47:16;20.10;;;11.80;;
82242;SDS011;71844;51.528;4.442;2024-03-08T09:49:44;17.85;;;9.68;;
82242;SDS011;71844;51.528;4.442;2024-03-08T09:52:12;17.30;;;9.40;;
82242;SDS011;71844;51.528;4.442;2024-03-08T09:54:40;20.17;;;10.50;;
82242;SDS011;71844;51.528;4.442;2024-03-08T09:57:10;18.65;;;11.23;;
82242;SDS011;71844;51.528;4.442;2024-03-08T09:59:37;16.45;;;9.65;;
82242;SDS011;71844;51.528;4.442;2024-03-08T10:48:45;15.48;;;7.30;;
82242;SDS011;71844;51.528;4.442;2024-03-08T10:51:16;14.68;;;9.15;;
82242;SDS011;71844;51.528;4.442;2024-03-08T10:56:18;15.77;;;9.02;;
82242;SDS011;71844;51.528;4.442;2024-03-08T10:58:45;14.52;;;8.40;;
82242;SDS011;71844;51.528;4.442;2024-03-08T11:01:14;12.50;;;8.07;;
82242;SDS011;71844;51.528;4.442;2024-03-08T11:09:27;13.38;;;7.80;;
82242;SDS011;71844;51.528;4.442;2024-03-08T11:14:46;12.57;;;7.43;;
82242;SDS011;71844;51.528;4.442;2024-03-08T11:18:00;13.73;;;8.77;;
82242;SDS011;71844;51.528;4.442;2024-03-08T11:20:11;15.55;;;7.82;;
82242;SDS011;71844;51.528;4.442;2024-03-08T11:23:02;12.73;;;7.85;;
82242;SDS011;71844;51.528;4.442;2024-03-08T11:25:36;12.07;;;7.63;;
82242;SDS011;71844;51.528;4.442;2024-03-08T11:28:19;13.30;;;8.25;;
82242;SDS011;71844;51.528;4.442;2024-03-08T11:31:22;14.25;;;8.57;;
82242;SDS011;71844;51.528;4.442;2024-03-08T11:33:40;13.10;;;7.47;;
82242;SDS011;71844;51.528;4.442;2024-03-08T11:36:10;12.55;;;7.78;;
82242;SDS011;71844;51.528;4.442;2024-03-08T11:41:07;15.70;;;7.95;;
82242;SDS011;71844;51.528;4.442;2024-03-08T11:43:34;13.18;;;8.25;;
82242;SDS011;71844;51.528;4.442;2024-03-08T11:46:08;13.35;;;8.45;;
82242;SDS011;71844;51.528;4.442;2024-03-08T11:48:35;13.55;;;7.78;;
82242;SDS011;71844;51.528;4.442;2024-03-08T11:51:02;12.20;;;8.25;;
82242;SDS011;71844;51.528;4.442;2024-03-08T11:53:31;12.00;;;6.97;;
82242;SDS011;71844;51.528;4.442;2024-03-08T11:56:10;13.95;;;8.68;;
82242;SDS011;71844;51.528;4.442;2024-03-08T11:58:39;13.10;;;7.95;;
82242;SDS011;71844;51.528;4.442;2024-03-08T12:01:08;13.27;;;8.38;;
82242;SDS011;71844;51.528;4.442;2024-03-08T12:03:40;12.20;;;7.70;;
82242;SDS011;71844;51.528;4.442;2024-03-08T12:06:09;13.65;;;8.25;;
82242;SDS011;71844;51.528;4.442;2024-03-08T12:08:37;13.80;;;8.07;;
82242;SDS011;71844;51.528;4.442;2024-03-08T12:11:04;14.25;;;8.60;;
82242;SDS011;71844;51.528;4.442;2024-03-08T12:13:32;13.05;;;7.80;;
82242;SDS011;71844;51.528;4.442;2024-03-08T12:16:03;13.40;;;7.57;;
82242;SDS011;71844;51.528;4.442;2024-03-08T12:18:34;12.35;;;7.60;;
82242;SDS011;71844;51.528;4.442;2024-03-08T12:21:04;11.35;;;6.95;;
82242;SDS011;71844;51.528;4.442;2024-03-08T12:23:40;12.68;;;7.75;;
82242;SDS011;71844;51.528;4.442;2024-03-08T12:26:18;12.40;;;7.95;;
82242;SDS011;71844;51.528;4.442;2024-03-08T12:28:52;11.20;;;6.65;;
82242;SDS011;71844;51.528;4.442;2024-03-08T12:31:20;13.27;;;6.72;;
82242;SDS011;71844;51.528;4.442;2024-03-08T12:33:51;10.43;;;6.40;;
82242;SDS011;71844;51.528;4.442;2024-03-08T12:36:22;10.55;;;6.43;;
82242;SDS011;71844;51.528;4.442;2024-03-08T12:38:50;11.48;;;6.78;;
82242;SDS011;71844;51.528;4.442;2024-03-08T12:41:18;10.18;;;6.38;;
82242;SDS011;71844;51.528;4.442;2024-03-08T12:43:46;11.85;;;6.93;;
82242;SDS011;71844;51.528;4.442;2024-03-08T12:46:18;12.60;;;6.22;;
82242;SDS011;71844;51.528;4.442;2024-03-08T12:48:49;10.63;;;6.68;;
82242;SDS011;71844;51.528;4.442;2024-03-08T12:51:20;11.38;;;7.43;;
82242;SDS011;71844;51.528;4.442;2024-03-08T12:53:47;13.05;;;7.90;;
82242;SDS011;71844;51.528;4.442;2024-03-08T12:56:19;12.57;;;7.90;;
82242;SDS011;71844;51.528;4.442;2024-03-08T12:58:55;12.88;;;6.90;;
82242;SDS011;71844;51.528;4.442;2024-03-08T13:01:23;13.80;;;7.53;;
82242;SDS011;71844;51.528;4.442;2024-03-08T13:03:50;11.02;;;7.10;;
82242;SDS011;71844;51.528;4.442;2024-03-08T13:06:17;11.90;;;6.80;;
82242;SDS011;71844;51.528;4.442;2024-03-08T13:08:45;11.07;;;7.13;;
82242;SDS011;71844;51.528;4.442;2024-03-08T13:11:14;12.07;;;7.32;;
82242;SDS011;71844;51.528;4.442;2024-03-08T13:13:41;11.75;;;7.45;;
82242;SDS011;71844;51.528;4.442;2024-03-08T13:16:08;11.70;;;7.50;;
82242;SDS011;71844;51.528;4.442;2024-03-08T13:18:35;11.77;;;7.07;;
82242;SDS011;71844;51.528;4.442;2024-03-08T13:21:03;12.10;;;7.25;;
82242;SDS011;71844;51.528;4.442;2024-03-08T13:23:37;11.63;;;7.20;;
82242;SDS011;71844;51.528;4.442;2024-03-08T13:26:07;12.63;;;7.28;;
82242;SDS011;71844;51.528;4.442;2024-03-08T13:28:35;13.35;;;7.97;;
82242;SDS011;71844;51.528;4.442;2024-03-08T13:31:05;12.45;;;7.05;;
82242;SDS011;71844;51.528;4.442;2024-03-08T13:33:33;10.98;;;7.20;;
82242;SDS011;71844;51.528;4.442;2024-03-08T13:36:08;10.95;;;6.72;;
82242;SDS011;71844;51.528;4.442;2024-03-08T13:38:45;11.98;;;6.53;;
82242;SDS011;71844;51.528;4.442;2024-03-08T13:41:14;10.90;;;6.72;;
82242;SDS011;71844;51.528;4.442;2024-03-08T13:43:44;10.70;;;6.65;;
82242;SDS011;71844;51.528;4.442;2024-03-08T13:46:13;12.40;;;6.65;;
82242;SDS011;71844;51.528;4.442;2024-03-08T13:48:40;10.35;;;6.85;;
82242;SDS011;71844;51.528;4.442;2024-03-08T13:51:07;11.60;;;6.88;;
82242;SDS011;71844;51.528;4.442;2024-03-08T13:53:41;11.95;;;6.55;;
82242;SDS011;71844;51.528;4.442;2024-03-08T13:56:08;11.05;;;6.82;;
82242;SDS011;71844;51.528;4.442;2024-03-08T13:58:37;12.88;;;6.90;;
82242;SDS011;71844;51.528;4.442;2024-03-08T14:01:07;10.63;;;6.82;;
82242;SDS011;71844;51.528;4.442;2024-03-08T14:03:38;12.55;;;6.88;;
82242;SDS011;71844;51.528;4.442;2024-03-08T14:06:09;11.82;;;6.70;;
82242;SDS011;71844;51.528;4.442;2024-03-08T14:08:36;14.05;;;6.90;;
82242;SDS011;71844;51.528;4.442;2024-03-08T14:11:06;12.80;;;7.05;;
82242;SDS011;71844;51.528;4.442;2024-03-08T14:13:43;14.07;;;7.75;;
82242;SDS011;71844;51.528;4.442;2024-03-08T14:16:12;9.98;;;6.20;;
82242;SDS011;71844;51.528;4.442;2024-03-08T14:18:40;11.43;;;6.82;;
82242;SDS011;71844;51.528;4.442;2024-03-08T14:21:07;10.77;;;6.35;;
82242;SDS011;71844;51.528;4.442;2024-03-08T14:23:37;11.43;;;6.10;;
82242;SDS011;71844;51.528;4.442;2024-03-08T14:26:07;10.63;;;6.28;;
82242;SDS011;71844;51.528;4.442;2024-03-08T14:28:35;12.02;;;6.60;;
82242;SDS011;71844;51.528;4.442;2024-03-08T14:31:02;10.00;;;6.68;;
82242;SDS011;71844;51.528;4.442;2024-03-08T14:33:32;12.40;;;6.18;;
82242;SDS011;71844;51.528;4.442;2024-03-08T14:36:00;9.90;;;6.03;;
82242;SDS011;71844;51.528;4.442;2024-03-08T14:38:28;11.15;;;6.40;;
82242;SDS011;71844;51.528;4.442;2024-03-08T14:40:55;10.95;;;6.15;;
82242;SDS011;71844;51.528;4.442;2024-03-08T14:43:22;9.40;;;5.95;;
82242;SDS011;71844;51.528;4.442;2024-03-08T14:45:50;11.48;;;5.95;;
82242;SDS011;71844;51.528;4.442;2024-03-08T14:48:18;10.18;;;5.78;;
82242;SDS011;71844;51.528;4.442;2024-03-08T16:05:04;7.10;;;3.80;;
82242;SDS011;71844;51.528;4.442;2024-03-08T16:07:33;8.27;;;3.65;;
82242;SDS011;71844;51.528;4.442;2024-03-08T16:10:00;9.43;;;4.63;;
82242;SDS011;71844;51.528;4.442;2024-03-08T16:12:27;8.27;;;4.05;;
82242;SDS011;71844;51.528;4.442;2024-03-08T16:14:55;10.82;;;4.18;;
82242;SDS011;71844;51.528;4.442;2024-03-08T16:17:22;9.00;;;4.03;;
82242;SDS011;71844;51.528;4.442;2024-03-08T16:19:49;9.98;;;4.78;;
82242;SDS011;71844;51.528;4.442;2024-03-08T16:22:16;8.88;;;4.63;;
82242;SDS011;71844;51.528;4.442;2024-03-08T16:24:44;11.95;;;4.93;;
82242;SDS011;71844;51.528;4.442;2024-03-08T16:27:11;10.68;;;4.43;;
82242;SDS011;71844;51.528;4.442;2024-03-08T16:29:38;9.32;;;4.45;;
82242;SDS011;71844;51.528;4.442;2024-03-08T16:32:05;9.20;;;4.22;;
82242;SDS011;71844;51.528;4.442;2024-03-08T16:34:32;9.23;;;4.25;;
82242;SDS011;71844;51.528;4.442;2024-03-08T16:37:01;10.05;;;4.22;;
82242;SDS011;71844;51.528;4.442;2024-03-08T16:39:28;10.23;;;4.72;;
82242;SDS011;71844;51.528;4.442;2024-03-08T16:41:55;9.57;;;5.38;;
82242;SDS011;71844;51.528;4.442;2024-03-08T16:44:23;11.70;;;5.38;;
82242;SDS011;71844;51.528;4.442;2024-03-08T16:46:51;10.45;;;4.13;;
82242;SDS011;71844;51.528;4.442;2024-03-08T16:49:18;8.98;;;4.55;;
82242;SDS011;71844;51.528;4.442;2024-03-08T16:51:45;9.30;;;4.45;;
82242;SDS011;71844;51.528;4.442;2024-03-08T16:54:12;9.23;;;4.90;;
82242;SDS011;71844;51.528;4.442;2024-03-08T16:56:39;9.02;;;4.47;;
82242;SDS011;71844;51.528;4.442;2024-03-08T16:59:09;9.88;;;4.35;;
82242;SDS011;71844;51.528;4.442;2024-03-08T17:01:36;9.77;;;4.68;;